Time;durP1;ratioP1;P1;durP2;ratioP2;P2;SDS_P1;SDS_P2;PMS_P1;PMS_P2;Temp;Humidity;BMP_temperature;BMP_pressure;BME280_temperature;BME280_humidity;BME280_pressure;Samples;Min_cycle;Max_cycle;Signal;HPM_P1;HPM_P2
2023/01/06 00:01:17;;;;;;;14.20;6.07;;;;;;;4.13;100.00;96326.97;1758617;82;21061;-70
2023/01/06 00:03:50;;;;;;;12.20;5.53;;;;;;;4.14;100.00;96336.61;1758298;82;21489;-70
2023/01/06 00:06:17;;;;;;;12.85;5.65;;;;;;;4.14;100.00;96346.80;1757660;80;21040;-71
2023/01/06 00:08:44;;;;;;;9.63;5.50;;;;;;;4.14;100.00;96352.65;1758613;81;21034;-72
2023/01/06 00:11:13;;;;;;;10.60;5.33;;;;;;;4.14;100.00;96354.83;1758815;81;21500;-70
2023/01/06 00:13:40;;;;;;;11.67;5.70;;;;;;;4.16;100.00;96355.42;1758564;82;21539;-71
2023/01/06 00:16:14;;;;;;;10.33;5.30;;;;;;;4.18;100.00;96363.22;1758904;82;20994;-70
2023/01/06 00:18:41;;;;;;;10.80;5.50;;;;;;;4.18;100.00;96358.69;1758653;81;21562;-71
2023/01/06 00:21:08;;;;;;;8.93;4.90;;;;;;;4.20;100.00;96362.48;1758708;82;20998;-71
2023/01/06 00:23:35;;;;;;;8.47;4.90;;;;;;;4.21;100.00;96363.29;1758415;82;21021;-72
2023/01/06 00:26:05;;;;;;;7.87;4.90;;;;;;;4.23;100.00;96365.22;1758295;81;21029;-71
2023/01/06 00:28:33;;;;;;;11.03;5.77;;;;;;;4.23;100.00;96365.22;1758683;81;21071;-72
2023/01/06 00:31:09;;;;;;;9.17;5.07;;;;;;;4.22;100.00;96371.09;1758680;82;21001;-71
2023/01/06 00:33:37;;;;;;;10.00;5.13;;;;;;;4.24;100.00;96374.89;1758505;82;21025;-72
2023/01/06 00:36:05;;;;;;;9.40;5.27;;;;;;;4.26;100.00;96375.48;1758785;81;21033;-71
2023/01/06 00:38:35;;;;;;;11.13;5.10;;;;;;;4.25;100.00;96377.34;1758517;81;20985;-69
2023/01/06 00:42:02;;;;;;;9.13;4.83;;;;;;;4.26;100.00;96377.62;1758722;82;21496;-72
2023/01/06 00:43:36;;;;;;;9.27;5.07;;;;;;;4.27;100.00;96376.60;1754437;82;21065;-72
2023/01/06 00:46:04;;;;;;;10.13;4.90;;;;;;;4.29;100.00;96371.03;1752618;81;21010;-71
2023/01/06 00:48:32;;;;;;;10.67;5.07;;;;;;;4.29;100.00;96373.19;1752935;82;21461;-70
2023/01/06 00:51:00;;;;;;;10.07;5.10;;;;;;;4.33;100.00;96377.04;1790620;79;21524;-69
2023/01/06 00:53:27;;;;;;;12.60;5.63;;;;;;;4.34;100.00;96371.20;1752709;82;21013;-71
2023/01/06 00:56:00;;;;;;;8.83;4.97;;;;;;;4.36;100.00;96373.94;1753111;82;21475;-71
2023/01/06 00:58:31;;;;;;;9.33;4.85;;;;;;;4.38;100.00;96375.86;1790845;80;21026;-70
2023/01/06 01:00:58;;;;;;;8.57;4.23;;;;;;;4.43;100.00;96369.86;1790685;80;20998;-70
2023/01/06 01:03:25;;;;;;;10.83;5.17;;;;;;;4.44;100.00;96368.80;1790679;80;21046;-70
2023/01/06 01:05:52;;;;;;;9.93;4.53;;;;;;;4.45;100.00;96369.11;1790321;80;21003;-72
2023/01/06 01:08:19;;;;;;;11.23;5.70;;;;;;;4.47;100.00;96368.89;1770795;80;21007;-71
2023/01/06 01:10:46;;;;;;;12.37;5.37;;;;;;;4.48;100.00;96365.16;1753248;82;21448;-71
2023/01/06 01:13:14;;;;;;;9.67;5.23;;;;;;;4.48;100.00;96364.66;1790703;80;21046;-70
2023/01/06 01:15:41;;;;;;;6.97;4.20;;;;;;;4.49;100.00;96364.14;1790402;80;21014;-71
2023/01/06 01:18:09;;;;;;;11.67;4.63;;;;;;;4.51;100.00;96366.06;1790205;80;21074;-71
2023/01/06 01:20:36;;;;;;;10.23;4.73;;;;;;;4.50;100.00;96368.45;1790519;80;20968;-71
2023/01/06 01:23:02;;;;;;;11.23;5.37;;;;;;;4.52;100.00;96371.72;1790592;80;21019;-70
2023/01/06 01:25:30;;;;;;;8.53;4.60;;;;;;;4.52;100.00;96375.20;1790476;80;21084;-71
2023/01/06 01:27:56;;;;;;;9.63;4.57;;;;;;;4.54;100.00;96377.14;1753137;82;21014;-71
2023/01/06 01:30:24;;;;;;;9.23;4.63;;;;;;;4.56;100.00;96380.93;1753005;82;21018;-70
2023/01/06 01:32:51;;;;;;;8.03;4.60;;;;;;;4.58;100.00;96381.52;1752734;82;20994;-70
2023/01/06 01:35:18;;;;;;;8.30;4.60;;;;;;;4.58;100.00;96374.02;1752746;82;21078;-70
2023/01/06 01:37:45;;;;;;;10.37;4.83;;;;;;;4.59;100.00;96374.34;1790415;80;21002;-71
2023/01/06 01:40:11;;;;;;;11.50;4.60;;;;;;;4.59;100.00;96377.02;1752884;82;20992;-71
2023/01/06 01:42:38;;;;;;;10.47;5.07;;;;;;;4.59;100.00;96379.69;1753003;80;21069;-71
2023/01/06 01:45:22;;;;;;;9.23;4.73;;;;;;;4.61;100.00;96378.41;1748975;82;22009;-71
2023/01/06 01:48:05;;;;;;;11.33;5.20;;;;;;;4.63;100.00;96379.00;1744805;82;21560;-70
2023/01/06 01:50:43;;;;;;;11.43;5.20;;;;;;;4.65;100.00;96378.78;1722793;80;21018;-69
2023/01/06 01:53:15;;;;;;;12.03;5.57;;;;;;;4.65;100.00;96383.61;1745160;82;21081;-71
2023/01/06 01:55:41;;;;;;;11.17;4.73;;;;;;;4.66;100.00;96389.80;1782286;79;21433;-71
2023/01/06 01:58:22;;;;;;;9.90;5.07;;;;;;;4.67;100.00;96388.20;1744909;81;21038;-71
2023/01/06 02:00:49;;;;;;;8.77;4.57;;;;;;;4.68;100.00;96390.39;1782296;80;21066;-71
2023/01/06 02:03:16;;;;;;;7.00;4.27;;;;;;;4.68;100.00;96394.40;1782276;80;21027;-70
2023/01/06 02:05:49;;;;;;;10.33;4.70;;;;;;;4.69;100.00;96398.20;1781954;80;20980;-72
2023/01/06 02:08:30;;;;;;;8.00;4.43;;;;;;;4.72;100.00;96408.96;1744610;82;21044;-72
2023/01/06 02:10:57;;;;;;;10.90;4.70;;;;;;;4.72;100.00;96397.73;1782171;80;21027;-71
2023/01/06 02:13:24;;;;;;;9.97;5.07;;;;;;;4.73;100.00;96410.08;1745152;82;21045;-70
2023/01/06 02:15:59;;;;;;;8.47;4.33;;;;;;;4.75;100.00;96416.02;1745012;82;21503;-71
2023/01/06 02:18:58;;;;;;;7.37;4.53;;;;;;;4.76;100.00;96415.50;1743392;82;21038;-71
2023/01/06 02:22:08;;;;;;;10.53;4.43;;;;;;;4.78;100.00;96412.60;1740143;82;21082;-71
2023/01/06 02:25:03;;;;;;;8.63;4.43;;;;;;;4.78;100.00;96411.27;1782137;80;20991;-72
2023/01/06 02:28:00;;;;;;;7.83;4.53;;;;;;;4.78;100.00;96411.27;1745014;82;21036;-71
2023/01/06 02:30:58;;;;;;;6.53;3.90;;;;;;;4.79;100.00;96411.57;1781973;80;21034;-71
2023/01/06 02:33:34;;;;;;;5.90;3.80;;;;;;;4.79;100.00;96415.05;1744960;82;21041;-69
2023/01/06 02:36:35;;;;;;;9.33;4.00;;;;;;;4.79;100.00;96416.92;1769802;80;21465;-71
2023/01/06 02:39:36;;;;;;;6.47;3.80;;;;;;;4.81;100.00;96438.40;1745151;82;21015;-71
2023/01/06 02:42:38;;;;;;;8.33;4.33;;;;;;;4.80;100.00;96426.08;1772770;80;21039;-71
2023/01/06 02:45:40;;;;;;;5.80;3.67;;;;;;;4.83;100.00;96439.52;1787026;80;21095;-71
2023/01/06 02:48:48;;;;;;;6.93;4.30;;;;;;;4.81;100.00;96428.22;1795500;80;21061;-71
2023/01/06 02:51:33;;;;;;;6.87;4.20;;;;;;;4.82;100.00;96441.39;1796040;80;21001;-72
2023/01/06 02:54:20;;;;;;;9.07;4.27;;;;;;;4.82;100.00;96442.72;1795891;80;21048;-70
2023/01/06 02:56:56;;;;;;;7.00;4.27;;;;;;;4.82;100.00;96452.62;1795798;80;21060;-71
2023/01/06 02:59:26;;;;;;;8.13;4.00;;;;;;;4.82;100.00;96456.64;1796156;80;21439;-71
2023/01/06 03:01:53;;;;;;;8.80;4.00;;;;;;;4.83;100.00;96458.25;1795662;80;21080;-70
2023/01/06 03:04:29;;;;;;;6.43;4.00;;;;;;;4.83;100.00;96463.08;1795999;80;21071;-70
2023/01/06 03:06:57;;;;;;;6.97;3.60;;;;;;;4.83;100.00;96467.09;1795883;80;21051;-72
2023/01/06 03:09:35;;;;;;;7.27;4.00;;;;;;;4.84;100.00;96461.24;1795774;80;21498;-70
2023/01/06 03:12:29;;;;;;;8.13;4.00;;;;;;;4.85;100.00;96466.88;1795543;79;21068;-71
2023/01/06 03:14:57;;;;;;;4.90;3.60;;;;;;;4.83;100.00;96472.45;1795743;80;20981;-70
2023/01/06 03:17:24;;;;;;;6.20;3.70;;;;;;;4.81;100.00;96467.03;1795943;80;20990;-70
2023/01/06 03:19:51;;;;;;;6.40;3.93;;;;;;;4.82;100.00;96477.52;1795713;80;20977;-70
2023/01/06 03:22:18;;;;;;;10.33;4.57;;;;;;;4.83;100.00;96481.01;1795537;80;21044;-72
2023/01/06 03:24:45;;;;;;;6.67;3.90;;;;;;;4.83;100.00;96485.83;1767657;80;20978;-71
2023/01/06 03:27:12;;;;;;;9.63;4.30;;;;;;;4.83;100.00;96493.86;1795727;78;21037;-70
2023/01/06 03:29:39;;;;;;;4.77;3.70;;;;;;;4.84;100.00;96495.52;1769923;80;21060;-69
2023/01/06 03:32:34;;;;;;;8.37;4.30;;;;;;;4.84;100.00;96489.35;1795969;80;21529;-71
2023/01/06 03:35:22;;;;;;;6.70;3.90;;;;;;;4.83;100.00;96499.22;1795770;80;21036;-71
2023/01/06 03:38:02;;;;;;;6.77;3.60;;;;;;;4.81;100.00;96497.28;1796026;80;21009;-71
2023/01/06 03:40:36;;;;;;;8.13;4.13;;;;;;;4.81;100.00;96499.96;1795741;80;21020;-70
2023/01/06 03:43:28;;;;;;;6.67;4.03;;;;;;;4.82;100.00;96507.49;1767414;80;21053;-71
2023/01/06 03:46:14;;;;;;;9.20;4.57;;;;;;;4.80;100.00;96510.89;1795029;80;21087;-71
2023/01/06 03:49:05;;;;;;;5.80;3.83;;;;;;;4.81;100.00;96512.53;1795366;79;21066;-72
2023/01/06 03:51:59;;;;;;;8.83;4.27;;;;;;;4.81;100.00;96509.86;1795525;80;21070;-72
2023/01/06 03:54:49;;;;;;;8.17;4.17;;;;;;;4.81;100.00;96510.67;1759787;79;21022;-72
2023/01/06 03:57:23;;;;;;;9.23;4.20;;;;;;;4.79;100.00;96518.11;1796184;80;21019;-70
2023/01/06 03:59:56;;;;;;;9.23;4.30;;;;;;;4.78;100.00;96519.66;1795590;80;21039;-71
2023/01/06 04:02:23;;;;;;;5.93;4.00;;;;;;;4.77;100.00;96527.41;1796092;80;21002;-71
2023/01/06 04:05:16;;;;;;;7.80;4.20;;;;;;;4.78;100.00;96534.38;1778167;80;21003;-70
2023/01/06 04:07:44;;;;;;;8.00;4.20;;;;;;;4.75;100.00;96541.82;1795013;79;21035;-69
2023/01/06 04:10:12;;;;;;;8.30;4.27;;;;;;;4.74;100.00;96540.16;1794265;80;21036;-71
2023/01/06 04:12:39;;;;;;;9.67;4.60;;;;;;;4.75;100.00;96546.36;1794253;80;21481;-70
2023/01/06 04:15:14;;;;;;;7.57;4.40;;;;;;;4.76;100.00;96546.64;1794209;80;21024;-71
2023/01/06 04:17:43;;;;;;;8.10;4.13;;;;;;;4.75;100.00;96548.51;1794629;80;21039;-71
2023/01/06 04:20:18;;;;;;;7.20;3.90;;;;;;;4.76;100.00;96539.95;1794236;80;21564;-71
2023/01/06 04:22:46;;;;;;;7.40;4.23;;;;;;;4.77;100.00;96540.79;1794301;80;21008;-69
2023/01/06 04:25:14;;;;;;;7.67;4.20;;;;;;;4.77;100.00;96540.79;1794007;80;20996;-70
2023/01/06 04:27:42;;;;;;;6.57;4.13;;;;;;;4.76;100.00;96539.95;1794350;80;21027;-71
2023/01/06 04:30:11;;;;;;;8.47;4.57;;;;;;;4.75;100.00;96544.49;1765714;80;21028;-68
2023/01/06 04:32:40;;;;;;;8.27;4.37;;;;;;;4.77;100.00;96550.97;1794291;80;21043;-69
2023/01/06 04:35:08;;;;;;;6.73;3.83;;;;;;;4.77;100.00;96550.97;1794091;80;21059;-71
2023/01/06 04:37:36;;;;;;;11.33;4.70;;;;;;;4.78;100.00;96555.30;1794245;80;21470;-71
2023/01/06 04:40:06;;;;;;;10.03;4.57;;;;;;;4.78;100.00;96555.30;1794155;80;21051;-71
2023/01/06 04:43:03;;;;;;;9.03;4.30;;;;;;;4.80;100.00;96552.38;1794367;80;20992;-71
2023/01/06 04:45:03;;;;;;;12.63;5.30;;;;;;;4.81;100.00;96555.36;1788395;80;21623;-71
2023/01/06 04:47:31;;;;;;;10.03;5.07;;;;;;;4.83;100.00;96560.78;1744625;82;21053;-71
2023/01/06 04:49:58;;;;;;;12.00;5.03;;;;;;;4.83;100.00;96563.98;1745081;82;21523;-71
2023/01/06 04:52:25;;;;;;;12.47;5.73;;;;;;;4.81;100.00;96564.73;1745184;82;20979;-71
2023/01/06 04:54:53;;;;;;;15.33;8.80;;;;;;;4.81;100.00;96569.55;1745020;82;21504;-71
2023/01/06 04:57:19;;;;;;;14.03;7.53;;;;;;;4.82;100.00;96570.40;1745141;82;21049;-72
2023/01/06 04:59:48;;;;;;;19.57;11.33;;;;;;;4.83;100.00;96570.68;1744996;82;21567;-71
2023/01/06 05:02:15;;;;;;;22.40;12.33;;;;;;;4.81;100.00;96573.57;1782899;80;20998;-71
2023/01/06 05:04:42;;;;;;;19.20;10.97;;;;;;;4.82;100.00;96574.41;1783048;80;20967;-71
2023/01/06 05:07:09;;;;;;;20.87;12.07;;;;;;;4.81;100.00;96575.44;1782633;80;21509;-71
2023/01/06 05:09:36;;;;;;;18.53;9.73;;;;;;;4.80;100.00;96571.95;1782878;79;21050;-72
2023/01/06 05:12:03;;;;;;;15.70;8.63;;;;;;;4.81;100.00;96576.78;1782703;80;21004;-72
2023/01/06 05:14:30;;;;;;;19.47;9.50;;;;;;;4.81;100.00;96577.59;1782814;79;21509;-71
2023/01/06 05:16:57;;;;;;;21.13;11.20;;;;;;;4.83;100.00;96580.86;1745469;82;21010;-71
2023/01/06 05:19:24;;;;;;;17.63;9.47;;;;;;;4.83;100.00;96580.05;1782227;80;21118;-71
2023/01/06 05:21:51;;;;;;;18.00;9.70;;;;;;;4.84;100.00;96579.02;1745587;81;21038;-71
2023/01/06 05:24:18;;;;;;;12.90;6.90;;;;;;;4.85;100.00;96581.98;1782788;80;21015;-71
2023/01/06 05:26:45;;;;;;;7.30;4.83;;;;;;;4.85;100.00;96581.48;1745776;82;21053;-71
2023/01/06 05:29:14;;;;;;;18.77;10.03;;;;;;;4.86;100.00;96581.77;1745206;82;21057;-71
2023/01/06 05:31:41;;;;;;;14.13;7.63;;;;;;;4.87;100.00;96590.61;1782658;80;20991;-71
2023/01/06 05:34:10;;;;;;;16.53;8.63;;;;;;;4.88;100.00;96590.39;1745404;82;21053;-69
2023/01/06 05:36:37;;;;;;;16.77;8.97;;;;;;;4.88;100.00;96590.39;1745518;82;20983;-71
2023/01/06 05:39:04;;;;;;;9.30;5.47;;;;;;;4.89;100.00;96586.69;1745390;82;21015;-70
2023/01/06 05:41:31;;;;;;;9.83;5.10;;;;;;;4.91;100.00;96595.32;1782610;80;21074;-71
2023/01/06 05:43:58;;;;;;;9.77;4.90;;;;;;;4.92;100.00;96592.95;1745385;82;21018;-71
2023/01/06 05:46:25;;;;;;;17.80;9.43;;;;;;;4.93;100.00;96598.59;1746181;82;21023;-71
2023/01/06 05:48:52;;;;;;;17.83;9.70;;;;;;;4.95;100.00;96597.84;1788290;80;21010;-71
2023/01/06 05:51:19;;;;;;;17.70;9.97;;;;;;;4.95;100.00;96605.07;1787782;79;21069;-71
2023/01/06 05:53:46;;;;;;;12.17;6.53;;;;;;;4.95;100.00;96607.22;1788127;80;21021;-70
2023/01/06 05:56:17;;;;;;;7.47;5.03;;;;;;;4.98;100.00;96597.13;1787712;79;21009;-72
2023/01/06 05:58:46;;;;;;;7.27;4.43;;;;;;;4.98;100.00;96604.64;1787985;80;21036;-70
2023/01/06 06:01:23;;;;;;;12.50;6.80;;;;;;;5.00;100.00;96605.77;1787762;80;21056;-70
2023/01/06 06:03:51;;;;;;;15.43;7.73;;;;;;;5.00;100.00;96615.13;1787627;80;21554;-71
2023/01/06 06:06:20;;;;;;;15.30;7.73;;;;;;;4.98;100.00;96611.33;1788117;80;20986;-72
2023/01/06 06:08:47;;;;;;;13.50;6.77;;;;;;;4.99;100.00;96622.33;1788523;80;21010;-72
2023/01/06 06:11:18;;;;;;;12.07;6.87;;;;;;;5.01;100.00;96626.13;1787970;80;21053;-71
2023/01/06 06:13:47;;;;;;;13.80;7.97;;;;;;;5.01;100.00;96628.30;1787815;80;20985;-71
2023/01/06 06:16:14;;;;;;;16.67;9.50;;;;;;;5.02;100.00;96626.44;1787752;79;21530;-71
2023/01/06 06:18:41;;;;;;;18.03;9.67;;;;;;;5.03;100.00;96630.73;1787903;80;21064;-71
2023/01/06 06:21:10;;;;;;;17.73;9.87;;;;;;;5.00;100.00;96624.50;1787784;80;21017;-71
2023/01/06 06:23:37;;;;;;;14.40;6.47;;;;;;;4.99;100.00;96636.23;1787729;80;21021;-71
2023/01/06 06:26:04;;;;;;;14.47;7.07;;;;;;;4.98;100.00;96642.66;1787915;80;21043;-70
2023/01/06 06:28:35;;;;;;;16.23;7.37;;;;;;;5.00;100.00;96645.40;1787480;80;21514;-71
2023/01/06 06:31:10;;;;;;;16.70;8.50;;;;;;;5.00;100.00;96645.92;1787773;80;20990;-71
2023/01/06 06:33:38;;;;;;;21.03;10.33;;;;;;;5.00;100.00;96641.38;1787646;80;21030;-70
2023/01/06 06:36:08;;;;;;;32.33;15.53;;;;;;;5.01;100.00;96648.89;1787945;79;21491;-71
2023/01/06 06:38:35;;;;;;;30.10;13.93;;;;;;;5.01;100.00;96644.38;1787602;80;21029;-72
2023/01/06 06:41:02;;;;;;;23.80;10.53;;;;;;;5.02;100.00;96648.67;1787880;79;21459;-71
2023/01/06 06:43:30;;;;;;;22.30;10.80;;;;;;;5.01;100.00;96653.75;1787553;80;21022;-71
2023/01/06 06:45:57;;;;;;;25.20;11.37;;;;;;;5.02;100.00;96649.20;1786241;80;21027;-72
2023/01/06 06:48:24;;;;;;;23.27;12.57;;;;;;;5.03;100.00;96648.98;1781946;80;21054;-71
2023/01/06 06:51:04;;;;;;;63.07;29.10;;;;;;;5.05;100.00;96657.62;1781815;80;21066;-70
2023/01/06 06:53:32;;;;;;;55.07;30.20;;;;;;;5.05;100.00;96656.80;1781736;80;21031;-71
2023/01/06 06:56:02;;;;;;;25.13;14.87;;;;;;;5.04;100.00;96653.28;1779010;79;21533;-71
2023/01/06 06:58:29;;;;;;;32.77;18.07;;;;;;;5.04;100.00;96653.28;1782121;79;20963;-71
2023/01/06 07:00:56;;;;;;;13.17;7.97;;;;;;;5.05;100.00;96656.80;1782002;80;21019;-71
2023/01/06 07:03:24;;;;;;;14.53;8.57;;;;;;;5.06;100.00;96657.09;1781589;80;21010;-71
2023/01/06 07:05:51;;;;;;;9.97;6.13;;;;;;;5.07;100.00;96660.08;1744354;82;21045;-71
2023/01/06 07:08:18;;;;;;;13.07;6.90;;;;;;;5.06;100.00;96661.91;1781834;80;21058;-70
2023/01/06 07:10:45;;;;;;;9.03;4.60;;;;;;;5.07;100.00;96665.44;1781728;80;20980;-71
2023/01/06 07:13:12;;;;;;;6.80;4.03;;;;;;;5.08;100.00;96657.69;1744851;82;21460;-71
2023/01/06 07:15:39;;;;;;;5.90;4.07;;;;;;;5.10;100.00;96655.11;1781957;80;21050;-71
2023/01/06 07:18:06;;;;;;;6.70;4.47;;;;;;;5.12;100.00;96660.25;1781628;80;21030;-70
2023/01/06 07:20:36;;;;;;;13.70;7.63;;;;;;;5.16;100.00;96656.61;1744339;81;20999;-70
2023/01/06 07:23:03;;;;;;;10.63;5.80;;;;;;;5.17;100.00;96661.75;1744382;82;21093;-70
2023/01/06 07:25:30;;;;;;;7.60;4.80;;;;;;;5.16;100.00;96656.61;1744997;82;21041;-72
2023/01/06 07:27:59;;;;;;;6.47;4.37;;;;;;;5.16;100.00;96654.74;1781722;80;20983;-70
2023/01/06 07:30:27;;;;;;;7.43;3.87;;;;;;;5.13;100.00;96664.05;1744550;82;20994;-71
2023/01/06 07:32:53;;;;;;;7.13;4.10;;;;;;;5.13;100.00;96663.20;1782065;80;20988;-70
2023/01/06 07:35:20;;;;;;;8.60;4.40;;;;;;;5.12;100.00;96669.62;1744650;82;21029;-69
2023/01/06 07:37:47;;;;;;;6.57;4.17;;;;;;;5.10;100.00;96665.81;1781818;80;21454;-70
2023/01/06 07:40:16;;;;;;;8.30;4.80;;;;;;;5.11;100.00;96675.47;1744890;82;20974;-66
2023/01/06 07:42:43;;;;;;;12.73;5.10;;;;;;;5.11;100.00;96675.47;1781749;80;21035;-66
2023/01/06 07:45:12;;;;;;;11.13;5.00;;;;;;;5.12;100.00;96673.11;1780055;80;21511;-67
2023/01/06 07:47:39;;;;;;;6.50;4.23;;;;;;;5.16;100.00;96665.98;1791392;80;21582;-70
2023/01/06 07:50:06;;;;;;;7.43;3.93;;;;;;;5.16;100.00;96665.45;1795793;80;21017;-70
2023/01/06 07:52:33;;;;;;;6.57;3.70;;;;;;;5.17;100.00;96673.80;1795877;80;21055;-70
2023/01/06 07:55:00;;;;;;;4.50;3.30;;;;;;;5.18;100.00;96676.77;1795739;80;21036;-70
2023/01/06 07:57:27;;;;;;;7.90;4.53;;;;;;;5.19;100.00;96674.89;1795487;78;21052;-70
2023/01/06 07:59:54;;;;;;;16.13;8.47;;;;;;;5.19;100.00;96675.73;1795401;80;21021;-69
2023/01/06 08:02:21;;;;;;;6.53;4.57;;;;;;;5.20;100.00;96672.53;1794343;80;21016;-70
2023/01/06 08:04:48;;;;;;;7.90;5.00;;;;;;;5.22;100.00;96679.83;1793913;80;21060;-69
2023/01/06 08:07:16;;;;;;;14.20;6.40;;;;;;;5.21;100.00;96677.67;1787138;79;21006;-69
2023/01/06 08:09:42;;;;;;;13.00;6.43;;;;;;;5.22;100.00;96681.97;1756785;82;21056;-68
2023/01/06 08:12:10;;;;;;;10.00;5.77;;;;;;;5.23;100.00;96682.28;1755919;82;21056;-70
2023/01/06 08:14:38;;;;;;;16.10;7.47;;;;;;;5.23;100.00;96682.28;1755852;81;21525;-68
2023/01/06 08:17:06;;;;;;;16.60;8.10;;;;;;;5.26;100.00;96691.23;1756302;80;21017;-69
2023/01/06 08:19:34;;;;;;;12.20;6.23;;;;;;;5.30;100.00;96685.73;1757597;82;21078;-70
2023/01/06 08:22:01;;;;;;;10.13;5.17;;;;;;;5.33;100.00;96680.47;1756918;80;20997;-70
2023/01/06 08:24:29;;;;;;;10.47;5.70;;;;;;;5.34;100.00;96684.77;1760910;80;21046;-71
2023/01/06 08:26:56;;;;;;;14.23;5.87;;;;;;;5.39;100.00;96681.44;1756394;80;20966;-70
2023/01/06 08:29:24;;;;;;;13.13;7.37;;;;;;;5.42;100.00;96679.14;1745836;80;20946;-73
2023/01/06 08:31:52;;;;;;;17.27;7.43;;;;;;;5.44;100.00;96681.60;1762280;80;21494;-70
2023/01/06 08:34:19;;;;;;;11.23;6.00;;;;;;;5.45;100.00;96685.41;1741697;80;21075;-69
2023/01/06 08:36:45;;;;;;;15.83;6.23;;;;;;;5.43;100.00;96682.10;1754664;80;21433;-70
2023/01/06 08:39:13;;;;;;;13.10;5.33;;;;;;;5.44;100.00;96681.60;1721232;82;21043;-69
2023/01/06 08:41:40;;;;;;;8.57;4.60;;;;;;;5.44;100.00;96678.92;1734675;82;20967;-69
2023/01/06 08:44:07;;;;;;;11.30;5.60;;;;;;;5.46;100.00;96678.17;1774633;81;21025;-70
2023/01/06 08:46:36;;;;;;;8.60;4.93;;;;;;;5.46;100.00;96677.64;1742421;82;21065;-69
2023/01/06 08:49:06;;;;;;;12.37;7.13;;;;;;;5.47;100.00;96675.28;1764196;80;21033;-68
2023/01/06 08:51:34;;;;;;;9.17;5.37;;;;;;;5.53;100.00;96674.10;1783394;79;21018;-70
2023/01/06 08:54:01;;;;;;;5.77;3.90;;;;;;;5.54;100.00;96672.52;1787602;80;20990;-69
2023/01/06 08:56:31;;;;;;;4.40;3.60;;;;;;;5.50;100.00;96674.00;1785232;80;21003;-71
2023/01/06 08:59:03;;;;;;;7.53;3.70;;;;;;;5.47;100.00;96686.50;1764074;80;21034;-77
2023/01/06 09:01:36;;;;;;;11.90;5.40;;;;;;;5.42;100.00;96709.11;1725940;80;21073;-77
2023/01/06 09:04:07;;;;;;;42.03;15.67;;;;;;;5.28;100.00;96719.95;1760037;80;20991;-75
2023/01/06 09:06:34;;;;;;;25.97;13.33;;;;;;;5.03;100.00;96736.52;1784220;80;21042;-78
2023/01/06 09:09:03;;;;;;;21.70;12.60;;;;;;;4.78;100.00;96755.20;1789849;80;21531;-78
2023/01/06 09:11:32;;;;;;;15.10;7.87;;;;;;;4.58;100.00;96762.82;1786919;80;21574;-74
2023/01/06 09:13:59;;;;;;;14.97;7.60;;;;;;;4.42;100.00;96788.20;1786919;80;21435;-78
2023/01/06 09:16:26;;;;;;;7.60;4.80;;;;;;;4.27;100.00;96803.18;1786273;80;21005;-78
2023/01/06 09:18:53;;;;;;;7.63;4.70;;;;;;;4.15;100.00;96816.89;1780501;80;21049;-79
2023/01/06 09:21:21;;;;;;;12.07;5.73;;;;;;;4.04;100.00;96839.74;1770015;80;20962;-79
2023/01/06 09:23:48;;;;;;;10.77;5.73;;;;;;;3.93;100.00;96853.23;1783090;79;21056;-79
2023/01/06 09:26:16;;;;;;;8.10;5.30;;;;;;;3.88;100.00;96870.89;1782543;79;20955;-77
2023/01/06 09:28:43;;;;;;;7.30;4.63;;;;;;;3.79;100.00;96883.14;1728660;80;21436;-79
2023/01/06 09:31:09;;;;;;;9.77;4.60;;;;;;;3.72;100.00;96894.84;1777837;80;21465;-80
2023/01/06 09:33:37;;;;;;;9.33;4.90;;;;;;;3.66;100.00;96911.17;1752947;80;21053;-77
2023/01/06 09:36:05;;;;;;;5.90;3.50;;;;;;;3.62;100.00;96917.96;1749569;82;20956;-76
2023/01/06 09:38:32;;;;;;;9.27;4.83;;;;;;;3.55;100.00;96939.31;1753678;81;21077;-78
2023/01/06 09:41:16;;;;;;;9.67;5.43;;;;;;;3.44;100.00;96958.62;1744288;82;21014;-76
2023/01/06 09:43:51;;;;;;;11.67;5.30;;;;;;;3.32;100.00;96971.72;1790759;79;20979;-77
2023/01/06 09:46:25;;;;;;;14.57;7.93;;;;;;;3.24;100.00;96990.61;1749114;82;21074;-78
2023/01/06 09:49:14;;;;;;;16.50;7.77;;;;;;;3.19;100.00;96997.05;1778450;79;21011;-79
2023/01/06 09:51:41;;;;;;;12.47;7.10;;;;;;;3.13;100.00;97015.99;1742407;81;21488;-77
2023/01/06 09:54:30;;;;;;;22.27;8.33;;;;;;;3.08;100.00;97028.30;1777647;79;21347;-78
2023/01/06 09:57:11;;;;;;;12.43;6.30;;;;;;;3.04;100.00;97046.03;1739651;82;20983;-78
2023/01/06 09:59:55;;;;;;;9.33;4.70;;;;;;;2.98;100.00;97058.03;1777143;80;21461;-77
2023/01/06 10:02:38;;;;;;;20.00;7.50;;;;;;;2.91;100.00;97071.84;1781027;79;20999;-77
2023/01/06 10:05:52;;;;;;;15.03;6.53;;;;;;;2.84;100.00;97087.28;1778201;80;21111;-76
2023/01/06 10:09:04;;;;;;;14.30;6.77;;;;;;;2.78;100.00;97093.41;1751039;80;21017;-77
2023/01/06 10:11:55;;;;;;;16.97;8.57;;;;;;;2.74;100.00;97104.65;1765565;80;21018;-78
2023/01/06 10:14:50;;;;;;;17.30;7.70;;;;;;;2.68;100.00;97117.44;1740487;81;21300;-78
2023/01/06 14:09:48;;;;;;;8.63;4.97;;;;;;;-1.82;100.00;98565.50;1729404;83;23011;-70
2023/01/06 14:12:22;;;;;;;9.97;4.67;;;;;;;-1.81;100.00;98440.80;1699701;84;20991;-70
2023/01/06 14:15:00;;;;;;;20.27;8.95;;;;;;;-1.85;100.00;98473.02;1699502;84;21006;-69
2023/01/06 14:17:40;;;;;;;14.97;6.23;;;;;;;-1.88;100.00;98495.29;1699181;84;21007;-69
2023/01/06 14:20:21;;;;;;;12.53;5.63;;;;;;;-1.91;100.00;98515.45;1699165;84;21583;-71
2023/01/06 14:23:05;;;;;;;17.33;6.80;;;;;;;-1.96;100.00;98537.02;1699619;84;21336;-69
2023/01/06 14:25:42;;;;;;;17.00;6.27;;;;;;;-2.00;100.00;98543.55;1699466;84;21010;-70
2023/01/06 14:28:29;;;;;;;11.23;5.17;;;;;;;-2.05;100.00;98560.30;1672423;84;21049;-70
2023/01/06 14:31:27;;;;;;;13.23;5.60;;;;;;;-2.10;100.00;98580.54;1699147;84;21077;-69
2023/01/06 14:34:00;;;;;;;8.80;4.53;;;;;;;-2.14;100.00;98596.83;1701550;84;21088;-69
2023/01/06 14:36:31;;;;;;;7.75;4.25;;;;;;;-2.16;100.00;98618.59;1699439;84;21035;-70
2023/01/06 14:39:01;;;;;;;8.73;4.27;;;;;;;-2.23;100.00;98638.59;1699417;84;21078;-70
2023/01/06 14:41:45;;;;;;;25.40;8.03;;;;;;;-2.30;100.00;98648.88;1699876;84;21030;-69
2023/01/06 14:44:15;;;;;;;13.40;5.13;;;;;;;-2.33;100.00;98655.23;1670020;84;20994;-71
2023/01/06 14:46:52;;;;;;;9.07;4.53;;;;;;;-2.35;100.00;98658.98;1699513;84;21105;-71
2023/01/06 14:49:26;;;;;;;10.50;5.33;;;;;;;-2.38;100.00;98668.48;1699735;84;21061;-69
2023/01/06 14:51:54;;;;;;;10.30;4.80;;;;;;;-2.40;100.00;98675.22;1674659;84;21038;-70
2023/01/06 14:54:32;;;;;;;7.30;5.07;;;;;;;-2.41;100.00;98677.98;1699698;84;21030;-69
2023/01/06 14:57:02;;;;;;;7.87;4.37;;;;;;;-2.44;100.00;98688.36;1698558;84;21128;-70
2023/01/06 14:59:31;;;;;;;6.07;3.77;;;;;;;-2.48;100.00;98692.19;1699207;84;21038;-70
2023/01/06 15:02:15;;;;;;;10.33;4.70;;;;;;;-2.52;100.00;98703.50;1699292;84;21054;-70
2023/01/06 15:04:42;;;;;;;7.70;4.50;;;;;;;-2.56;100.00;98710.50;1699336;84;21049;-70
2023/01/06 15:07:17;;;;;;;11.07;4.43;;;;;;;-2.59;100.00;98712.05;1698966;84;21070;-70
2023/01/06 15:09:49;;;;;;;11.50;4.67;;;;;;;-2.62;100.00;98718.90;1703328;84;21100;-70
2023/01/06 15:12:31;;;;;;;12.50;5.40;;;;;;;-2.62;100.00;98725.52;1704007;84;21073;-70
2023/01/06 15:15:23;;;;;;;10.23;5.20;;;;;;;-2.63;100.00;98739.23;1703421;84;21030;-69
2023/01/06 15:17:51;;;;;;;12.98;5.35;;;;;;;-2.65;100.00;98758.86;1704098;84;21054;-70
2023/01/06 15:20:18;;;;;;;13.60;5.23;;;;;;;-2.67;100.00;98757.65;1703929;84;21049;-69
2023/01/06 15:22:52;;;;;;;14.07;5.23;;;;;;;-2.68;100.00;98770.02;1703929;84;21084;-69
2023/01/06 15:25:23;;;;;;;;;;;;;;;-2.69;100.00;98763.55;1706585;84;21091;-69
2023/01/06 15:27:53;;;;;;;28.87;9.07;;;;;;;-2.71;100.00;98774.70;1703632;84;20139;-70
2023/01/06 15:30:20;;;;;;;23.37;9.13;;;;;;;-2.75;100.00;98783.84;1703616;84;21590;-70
2023/01/06 15:32:48;;;;;;;13.87;6.17;;;;;;;-2.77;100.00;98781.80;1703854;84;21038;-68
2023/01/06 15:35:25;;;;;;;18.63;6.30;;;;;;;-2.80;100.00;98781.53;1703868;84;21503;-70
2023/01/06 15:38:06;;;;;;;16.43;6.47;;;;;;;-2.84;100.00;98795.97;1703833;84;21078;-68
2023/01/06 15:40:33;;;;;;;10.90;4.67;;;;;;;-2.87;100.00;98793.09;1703940;84;21018;-69
2023/01/06 15:42:59;;;;;;;10.13;4.20;;;;;;;-2.89;100.00;98799.44;1703736;84;21057;-69